createdAt,value
2018-03-28T00:00:10.174Z,43.67
2018-03-28T00:02:38.738Z,39.83
2018-03-28T00:05:07.648Z,40.03
2018-03-28T00:07:35.826Z,42.00
2018-03-28T00:10:04.182Z,47.57
2018-03-28T00:12:32.350Z,44.33
2018-03-28T00:15:01.273Z,48.23
2018-03-28T00:17:29.463Z,49.27
2018-03-28T00:19:57.645Z,45.07
2018-03-28T00:22:25.892Z,56.87
2018-03-28T00:24:54.077Z,49.83
2018-03-28T00:27:22.238Z,49.27
2018-03-28T00:29:50.412Z,52.20
2018-03-28T00:32:18.843Z,52.83
2018-03-28T00:34:46.991Z,50.87
2018-03-28T00:37:15.353Z,47.83
2018-03-28T00:39:43.519Z,44.77
2018-03-28T00:42:11.678Z,42.67
2018-03-28T00:44:40.145Z,43.13
2018-03-28T00:47:09.076Z,47.03
2018-03-28T00:49:37.431Z,44.23
2018-03-28T00:52:06.314Z,45.37
2018-03-28T00:54:34.484Z,44.90
2018-03-28T00:57:03.079Z,48.13
2018-03-28T00:59:31.292Z,46.73
2018-03-28T01:01:59.530Z,39.93
2018-03-28T01:04:27.797Z,40.13
2018-03-28T01:06:56.170Z,37.00
2018-03-28T01:09:25.129Z,41.50
2018-03-28T01:11:53.270Z,47.10
2018-03-28T01:14:21.427Z,54.87
2018-03-28T01:16:49.901Z,44.63
2018-03-28T01:19:18.062Z,54.67
2018-03-28T01:21:46.962Z,57.40
2018-03-28T01:24:15.548Z,61.07
2018-03-28T01:26:43.696Z,69.47
2018-03-28T01:29:12.613Z,59.27
2018-03-28T01:31:40.771Z,65.30
2018-03-28T01:34:09.164Z,56.97
2018-03-28T01:36:38.076Z,64.23
2018-03-28T01:39:06.362Z,66.60
2018-03-28T01:41:34.525Z,70.77
2018-03-28T01:44:02.869Z,76.57
2018-03-28T01:46:31.871Z,86.30
2018-03-28T01:49:00.393Z,86.43
2018-03-28T01:51:28.556Z,90.07
2018-03-28T01:53:56.751Z,81.43
2018-03-28T01:56:24.919Z,88.80
2018-03-28T01:58:53.131Z,86.00
2018-03-28T02:01:21.375Z,93.90
2018-03-28T02:03:49.691Z,79.23
2018-03-28T02:06:18.604Z,66.63
2018-03-28T02:08:46.848Z,72.23
2018-03-28T02:11:15.155Z,73.03
2018-03-28T02:13:43.404Z,72.53
2018-03-28T02:16:11.713Z,72.30
2018-03-28T02:18:39.869Z,68.30
2018-03-28T02:21:09.321Z,73.43
2018-03-28T02:23:37.532Z,72.33
2018-03-28T02:26:05.833Z,69.77
2018-03-28T02:28:34.109Z,70.87
2018-03-28T02:31:02.300Z,71.03
2018-03-28T02:33:30.538Z,67.53
2018-03-28T02:35:59.478Z,67.33
2018-03-28T02:38:27.725Z,69.53
2018-03-28T02:40:55.903Z,67.23
2018-03-28T02:43:24.176Z,66.40
2018-03-28T02:45:52.492Z,69.13
2018-03-28T02:48:20.699Z,71.90
2018-03-28T02:50:48.870Z,73.47
2018-03-28T02:53:17.255Z,75.33
2018-03-28T02:55:45.418Z,75.50
2018-03-28T02:58:13.576Z,70.27
2018-03-28T03:00:41.741Z,78.23
2018-03-28T03:03:09.906Z,80.13
2018-03-28T03:05:38.035Z,73.80
2018-03-28T03:08:06.225Z,76.40
2018-03-28T03:10:34.376Z,71.50
2018-03-28T03:13:03.296Z,77.87
2018-03-28T03:15:32.284Z,79.90
2018-03-28T03:18:00.435Z,76.30
2018-03-28T03:20:28.849Z,80.57
2018-03-28T03:22:57.031Z,84.03
2018-03-28T03:25:25.185Z,79.80
2018-03-28T03:27:53.552Z,86.13
2018-03-28T03:30:21.767Z,85.23
2018-03-28T03:32:50.087Z,84.70
2018-03-28T03:35:18.993Z,83.83
2018-03-28T03:37:47.274Z,80.27
2018-03-28T03:40:15.438Z,85.47
2018-03-28T03:42:43.677Z,81.47
2018-03-28T03:45:11.844Z,78.67
2018-03-28T03:47:40.037Z,80.87
2018-03-28T03:50:08.208Z,77.90
2018-03-28T03:52:36.536Z,76.63
2018-03-28T03:55:05.482Z,77.50
2018-03-28T03:57:33.626Z,83.37
2018-03-28T04:00:01.798Z,79.97
2018-03-28T04:02:29.951Z,81.03
2018-03-28T04:04:58.103Z,82.00
2018-03-28T04:07:26.333Z,80.60
2018-03-28T04:09:54.496Z,77.60
2018-03-28T04:12:22.644Z,76.47
2018-03-28T04:14:50.803Z,76.20
2018-03-28T04:17:19.739Z,74.37
2018-03-28T04:19:47.895Z,69.80
2018-03-28T04:22:16.374Z,62.43
2018-03-28T04:24:45.646Z,62.53
2018-03-28T04:27:13.976Z,57.33
2018-03-28T04:29:42.227Z,58.50
2018-03-28T04:32:10.407Z,53.73
2018-03-28T04:34:38.688Z,50.90
2018-03-28T04:37:06.832Z,52.20
2018-03-28T04:39:35.830Z,48.10
2018-03-28T04:42:04.016Z,47.70
2018-03-28T04:44:32.240Z,49.20
2018-03-28T04:47:00.432Z,48.17
2018-03-28T04:49:29.011Z,56.33
2018-03-28T04:51:58.011Z,51.57
2018-03-28T04:54:26.184Z,60.20
2018-03-28T04:56:55.105Z,62.30
2018-03-28T04:59:23.246Z,56.07
2018-03-28T05:01:52.207Z,53.63
2018-03-28T05:04:20.641Z,55.40
2018-03-28T05:06:48.992Z,48.37
2018-03-28T05:09:18.021Z,52.43
2018-03-28T05:11:46.351Z,43.87
2018-03-28T05:14:14.520Z,46.33
2018-03-28T05:16:44.340Z,43.80
2018-03-28T05:19:12.634Z,39.97
2018-03-28T05:21:41.562Z,38.50
2018-03-28T05:24:10.004Z,38.43
2018-03-28T05:26:38.291Z,42.90
2018-03-28T05:29:06.552Z,48.53
2018-03-28T05:31:35.482Z,42.77
2018-03-28T05:34:03.636Z,42.67
2018-03-28T05:36:32.060Z,48.13
2018-03-28T05:39:00.253Z,46.60
2018-03-28T05:41:29.183Z,43.67
2018-03-28T05:43:57.372Z,43.73
2018-03-28T05:46:25.543Z,47.70
2018-03-28T05:48:53.860Z,40.77
2018-03-28T05:51:22.043Z,36.70
2018-03-28T05:53:50.348Z,41.77
2018-03-28T05:56:18.668Z,35.37
2018-03-28T05:58:46.818Z,32.13
2018-03-28T06:01:14.995Z,38.47
2018-03-28T06:03:43.164Z,32.03
2018-03-28T06:06:11.320Z,31.87
2018-03-28T06:08:40.280Z,30.40
2018-03-28T06:11:08.579Z,30.17
2018-03-28T06:13:37.487Z,31.17
2018-03-28T06:16:05.663Z,29.60
2018-03-28T06:18:33.824Z,27.47
2018-03-28T06:21:02.836Z,28.23
2018-03-28T06:23:31.006Z,31.33
2018-03-28T06:25:59.151Z,26.23
2018-03-28T06:28:28.062Z,27.17
2018-03-28T06:30:56.216Z,29.17
2018-03-28T06:33:25.456Z,21.83
2018-03-28T06:35:53.670Z,27.73
2018-03-28T06:38:21.851Z,29.43
2018-03-28T06:40:50.015Z,23.20
2018-03-28T06:43:18.964Z,27.93
2018-03-28T06:45:47.128Z,26.67
2018-03-28T06:48:15.372Z,28.77
2018-03-28T06:50:44.287Z,21.83
2018-03-28T06:53:13.342Z,21.87
2018-03-28T06:55:41.526Z,23.73
2018-03-28T06:58:09.672Z,21.20
2018-03-28T07:00:38.017Z,20.87
2018-03-28T07:03:06.342Z,30.07
2018-03-28T07:05:35.289Z,24.47
2018-03-28T07:08:03.460Z,25.17
2018-03-28T07:10:31.625Z,28.33
2018-03-28T07:12:59.771Z,17.50
2018-03-28T07:15:28.568Z,27.23
2018-03-28T07:17:57.642Z,22.37
2018-03-28T07:20:26.038Z,19.83
2018-03-28T07:22:54.211Z,24.03
2018-03-28T07:25:23.125Z,17.87
2018-03-28T07:27:52.200Z,25.33
2018-03-28T07:30:21.470Z,25.33
2018-03-28T07:32:49.708Z,51.47
2018-03-28T07:35:17.858Z,18.47
2018-03-28T07:37:46.829Z,16.17
2018-03-28T07:40:14.974Z,17.43
2018-03-28T07:42:43.343Z,20.87
2018-03-28T07:45:11.610Z,19.17
2018-03-28T07:47:39.772Z,18.47
2018-03-28T07:50:08.033Z,25.87
2018-03-28T07:52:37.000Z,23.87
2018-03-28T07:55:05.372Z,25.07
2018-03-28T07:57:33.782Z,24.27
2018-03-28T08:00:01.980Z,24.00
2018-03-28T08:02:30.162Z,22.87
2018-03-28T08:04:58.633Z,29.33
2018-03-28T08:07:26.809Z,28.47
2018-03-28T08:09:54.973Z,27.60
2018-03-28T08:12:23.239Z,26.33
2018-03-28T08:14:52.180Z,30.73
2018-03-28T08:17:20.515Z,29.93
2018-03-28T08:19:48.706Z,27.93
2018-03-28T08:22:17.099Z,32.07
2018-03-28T08:24:45.266Z,27.70
2018-03-28T08:27:13.414Z,30.37
2018-03-28T08:29:41.648Z,26.90
2018-03-28T08:32:09.806Z,32.47
2018-03-28T08:34:37.981Z,39.13
2018-03-28T08:37:06.170Z,29.50
2018-03-28T08:39:34.328Z,37.03
2018-03-28T08:42:02.641Z,36.63
2018-03-28T08:44:32.351Z,33.47
2018-03-28T08:47:01.286Z,33.87
2018-03-28T08:49:29.484Z,37.53
2018-03-28T08:51:57.694Z,34.50
2018-03-28T08:54:27.015Z,32.57
2018-03-28T08:56:55.211Z,30.00
2018-03-28T08:59:23.658Z,38.07
2018-03-28T09:01:51.853Z,27.33
2018-03-28T09:04:20.208Z,26.33
2018-03-28T09:06:48.385Z,20.10
2018-03-28T09:09:17.310Z,28.70
2018-03-28T09:11:45.480Z,24.00
2018-03-28T09:14:13.818Z,25.07
2018-03-28T09:16:42.830Z,21.57
2018-03-28T09:19:11.229Z,26.37
2018-03-28T09:21:39.368Z,21.77
2018-03-28T09:24:08.360Z,21.63
2018-03-28T09:26:37.282Z,24.30
2018-03-28T09:29:09.565Z,21.20
2018-03-28T09:31:37.734Z,22.27
2018-03-28T09:34:05.960Z,23.40
2018-03-28T09:36:34.405Z,22.30
2018-03-28T09:39:03.319Z,18.13
2018-03-28T09:41:31.670Z,22.03
2018-03-28T09:43:59.976Z,17.53
2018-03-28T09:46:28.233Z,19.77
2018-03-28T09:49:00.123Z,18.53
2018-03-28T09:51:29.018Z,17.07
2018-03-28T09:53:57.961Z,20.60
2018-03-28T09:56:26.134Z,19.43
2018-03-28T09:58:54.286Z,21.07
2018-03-28T10:01:28.310Z,23.27
2018-03-28T10:04:02.558Z,18.53
2018-03-28T10:06:31.784Z,20.67
2018-03-28T10:09:01.580Z,21.47
2018-03-28T10:11:30.143Z,17.63
2018-03-28T10:13:59.825Z,19.37
2018-03-28T10:16:28.061Z,16.13
2018-03-28T10:18:56.992Z,18.77
2018-03-28T10:21:25.151Z,17.63
2018-03-28T10:23:53.888Z,15.63
2018-03-28T10:26:22.815Z,18.40
2018-03-28T10:28:51.854Z,15.60
2018-03-28T10:31:20.178Z,13.37
2018-03-28T10:33:49.174Z,16.90
2018-03-28T10:36:18.164Z,13.37
2018-03-28T10:38:47.414Z,9.53
2018-03-28T10:41:15.566Z,11.07
2018-03-28T10:43:43.757Z,10.83
2018-03-28T10:46:11.893Z,7.70
2018-03-28T10:48:40.805Z,10.00
2018-03-28T10:51:08.975Z,9.17
2018-03-28T10:53:38.527Z,9.57
2018-03-28T10:56:06.663Z,8.33
2018-03-28T10:58:34.821Z,9.33
2018-03-28T11:01:02.957Z,11.73
2018-03-28T11:03:31.095Z,11.03
2018-03-28T11:05:59.395Z,10.80
2018-03-28T11:08:27.689Z,11.67
2018-03-28T11:10:56.266Z,10.83
2018-03-28T11:13:24.434Z,12.57
2018-03-28T11:15:52.587Z,12.03
2018-03-28T11:18:20.923Z,9.37
2018-03-28T11:20:49.173Z,10.87
2018-03-28T11:23:17.988Z,13.47
2018-03-28T11:25:46.347Z,14.10
2018-03-28T11:28:15.286Z,13.17
2018-03-28T11:30:43.453Z,11.83
2018-03-28T11:33:11.607Z,12.17
2018-03-28T11:35:39.756Z,11.27
2018-03-28T11:38:08.654Z,12.30
2018-03-28T11:40:37.870Z,11.70
2018-03-28T11:43:06.034Z,11.67
2018-03-28T11:45:34.949Z,15.07
2018-03-28T11:48:03.116Z,14.10
2018-03-28T11:50:31.407Z,13.93
2018-03-28T11:52:59.643Z,14.47
2018-03-28T11:55:28.542Z,13.77
2018-03-28T11:57:56.688Z,13.33
2018-03-28T12:00:26.695Z,13.20
2018-03-28T12:02:57.918Z,13.93
2018-03-28T12:05:26.056Z,14.67
2018-03-28T12:07:54.295Z,15.20
2018-03-28T12:10:26.540Z,13.50
2018-03-28T12:12:54.686Z,15.70
2018-03-28T12:15:22.938Z,14.03
2018-03-28T12:17:51.951Z,16.17
2018-03-28T12:20:20.208Z,14.07
2018-03-28T12:22:48.348Z,15.17
2018-03-28T12:25:16.568Z,13.87
2018-03-28T12:27:45.458Z,15.37
2018-03-28T12:30:13.597Z,15.47
2018-03-28T12:32:41.815Z,14.93
2018-03-28T12:35:09.973Z,14.87
2018-03-28T12:37:38.887Z,14.77
2018-03-28T12:40:07.118Z,12.40
2018-03-28T12:42:36.721Z,12.50
2018-03-28T12:45:05.050Z,17.73
2018-03-28T12:47:33.215Z,13.57
2018-03-28T12:50:01.616Z,14.67
2018-03-28T12:52:29.653Z,13.83
2018-03-28T12:54:57.896Z,13.67
2018-03-28T12:57:26.079Z,14.77
2018-03-28T12:59:55.217Z,13.40
2018-03-28T13:02:24.235Z,11.70
2018-03-28T13:04:52.379Z,12.27
2018-03-28T13:07:20.521Z,13.40
2018-03-28T13:09:48.706Z,14.63
2018-03-28T13:12:16.866Z,12.57
2018-03-28T13:14:45.012Z,15.03
2018-03-28T13:17:13.162Z,14.90
2018-03-28T13:19:41.367Z,13.30
2018-03-28T13:22:09.541Z,12.57
2018-03-28T13:24:37.758Z,12.03
2018-03-28T13:27:06.995Z,14.57
2018-03-28T13:29:35.162Z,13.47
2018-03-28T13:32:04.108Z,12.57
2018-03-28T13:34:32.486Z,13.03
2018-03-28T13:37:00.639Z,11.27
2018-03-28T13:39:29.650Z,10.87
2018-03-28T13:41:57.840Z,11.20
2018-03-28T13:44:26.008Z,10.73
2018-03-28T13:46:54.147Z,12.87
2018-03-28T13:49:22.294Z,8.87
2018-03-28T13:51:50.515Z,8.00
2018-03-28T13:54:18.641Z,11.70
2018-03-28T13:56:46.934Z,10.63
2018-03-28T13:59:15.347Z,8.80
2018-03-28T14:01:44.273Z,11.70
2018-03-28T14:04:12.417Z,9.30
2018-03-28T14:06:41.575Z,9.87
2018-03-28T14:09:09.774Z,9.50
2018-03-28T14:11:38.396Z,14.20
2018-03-28T14:14:06.587Z,8.17
2018-03-28T14:16:35.433Z,7.97
2018-03-28T14:19:04.345Z,8.13
2018-03-28T14:21:32.494Z,7.40
2018-03-28T14:24:01.430Z,9.00
2018-03-28T14:26:29.589Z,8.53
2018-03-28T14:28:57.738Z,9.10
2018-03-28T14:31:26.646Z,7.00
2018-03-28T14:33:54.808Z,5.87
2018-03-28T14:38:57.423Z,5.90
2018-03-28T14:41:25.593Z,5.20
2018-03-28T14:43:53.733Z,5.80
2018-03-28T14:46:22.829Z,5.53
2018-03-28T14:48:51.256Z,5.60
2018-03-28T14:51:19.416Z,5.13
2018-03-28T14:53:47.641Z,5.80
2018-03-28T14:56:15.787Z,6.17
2018-03-28T14:58:43.949Z,5.20
2018-03-28T15:01:12.507Z,6.17
2018-03-28T15:03:40.662Z,5.23
2018-03-28T15:06:09.735Z,5.50
2018-03-28T15:08:37.915Z,5.73
2018-03-28T15:11:06.179Z,6.47
2018-03-28T15:13:34.754Z,6.67
2018-03-28T15:16:02.916Z,8.03
2018-03-28T15:18:31.105Z,8.10
2018-03-28T15:20:59.295Z,7.87
2018-03-28T15:23:27.448Z,8.23
2018-03-28T15:25:55.801Z,8.10
2018-03-28T15:28:24.151Z,8.90
2018-03-28T15:30:53.148Z,9.37
2018-03-28T15:33:22.386Z,10.70
2018-03-28T15:35:50.534Z,10.03
2018-03-28T15:38:18.896Z,9.53
2018-03-28T15:40:47.951Z,10.40
2018-03-28T15:43:16.365Z,10.63
2018-03-28T15:45:45.313Z,10.23
2018-03-28T15:48:17.478Z,11.77
2018-03-28T15:50:45.649Z,10.50
2018-03-28T15:53:13.791Z,24.57
2018-03-28T15:55:41.985Z,7.23
2018-03-28T15:58:10.237Z,9.93
2018-03-28T16:00:38.404Z,11.77
2018-03-28T16:03:06.560Z,14.30
2018-03-28T16:05:35.470Z,18.83
2018-03-28T16:08:03.618Z,17.40
2018-03-28T16:10:32.533Z,16.97
2018-03-28T16:13:00.708Z,18.30
2018-03-28T16:15:29.609Z,19.57
2018-03-28T16:17:57.822Z,19.30
2018-03-28T16:20:25.972Z,22.10
2018-03-28T16:22:54.111Z,22.47
2018-03-28T16:25:23.718Z,20.37
2018-03-28T16:27:52.022Z,19.60
2018-03-28T16:30:20.272Z,18.33
2018-03-28T16:32:48.909Z,12.63
2018-03-28T16:35:17.978Z,13.60
2018-03-28T16:37:46.131Z,16.17
2018-03-28T16:40:15.018Z,15.60
2018-03-28T16:42:43.938Z,10.80
2018-03-28T16:45:12.176Z,14.37
2018-03-28T16:47:40.412Z,11.27
2018-03-28T16:50:08.886Z,11.47
2018-03-28T16:52:45.968Z,15.13
2018-03-28T16:55:14.160Z,11.07
2018-03-28T16:57:42.303Z,10.67
2018-03-28T17:00:10.688Z,10.33
2018-03-28T17:02:38.845Z,12.57
2018-03-28T17:05:06.976Z,9.90
2018-03-28T17:07:35.197Z,11.70
2018-03-28T17:10:03.383Z,9.20
2018-03-28T17:12:32.346Z,8.70
2018-03-28T17:15:00.490Z,8.70
2018-03-28T17:17:28.676Z,7.33
2018-03-28T17:19:57.572Z,7.10
2018-03-28T17:22:26.505Z,8.00
2018-03-28T17:24:54.649Z,10.53
2018-03-28T17:27:22.806Z,11.77
2018-03-28T17:29:51.704Z,10.27
2018-03-28T17:32:19.852Z,11.07
2018-03-28T17:34:48.891Z,12.40
2018-03-28T17:37:17.085Z,12.93
2018-03-28T17:39:45.244Z,13.70
2018-03-28T17:42:14.243Z,14.73
2018-03-28T17:44:42.433Z,13.13
2018-03-28T17:47:10.600Z,13.07
2018-03-28T17:49:38.822Z,14.87
2018-03-28T17:52:07.746Z,13.93
2018-03-28T17:54:35.936Z,17.10
2018-03-28T17:57:04.238Z,10.27
2018-03-28T17:59:32.453Z,7.30
2018-03-28T18:04:35.843Z,4.70
2018-03-28T18:07:03.998Z,3.50
2018-03-28T18:09:32.138Z,2.97
2018-03-28T18:12:00.286Z,2.60
2018-03-28T18:14:29.426Z,2.67
2018-03-28T18:16:57.560Z,3.20
2018-03-28T18:19:25.803Z,3.13
2018-03-28T18:21:53.957Z,3.23
2018-03-28T18:24:22.214Z,4.37
2018-03-28T18:26:50.533Z,3.60
2018-03-28T18:29:18.676Z,4.23
2018-03-28T18:31:46.895Z,4.60
2018-03-28T18:34:15.053Z,5.50
2018-03-28T18:36:44.125Z,6.43
2018-03-28T18:39:12.331Z,6.93
2018-03-28T18:41:41.271Z,6.73
2018-03-28T18:44:09.704Z,7.07
2018-03-28T18:46:39.397Z,7.30
2018-03-28T18:49:07.573Z,7.67
2018-03-28T18:51:35.722Z,6.33
2018-03-28T18:54:04.806Z,7.20
2018-03-28T18:56:32.971Z,7.37
2018-03-28T18:59:01.234Z,7.17
2018-03-28T19:01:29.382Z,7.20
2018-03-28T19:03:58.456Z,6.67
2018-03-28T19:06:26.648Z,7.57
2018-03-28T19:08:55.622Z,7.57
2018-03-28T19:11:23.854Z,9.77
2018-03-28T19:13:52.050Z,6.07
2018-03-28T19:16:20.192Z,6.10
2018-03-28T19:18:48.349Z,5.80
2018-03-28T19:21:16.649Z,5.33
2018-03-28T19:23:44.818Z,6.00
2018-03-28T19:26:13.170Z,6.50
2018-03-28T19:28:42.188Z,5.90
2018-03-28T19:31:10.371Z,6.40
2018-03-28T19:33:38.555Z,5.83
2018-03-28T19:36:06.700Z,7.13
2018-03-28T19:38:34.844Z,8.47
2018-03-28T19:41:03.694Z,10.00
2018-03-28T19:43:31.861Z,10.73
2018-03-28T19:46:00.112Z,13.57
2018-03-28T19:48:29.059Z,19.30
2018-03-28T19:50:57.220Z,23.20
2018-03-28T19:53:25.373Z,25.90
2018-03-28T19:55:53.551Z,21.20
2018-03-28T19:58:21.754Z,23.53
2018-03-28T20:00:50.910Z,21.03
2018-03-28T20:03:19.069Z,20.17
2018-03-28T20:05:47.220Z,17.20
2018-03-28T20:08:16.139Z,16.03
2018-03-28T20:10:44.304Z,15.70
2018-03-28T20:13:12.474Z,17.23
2018-03-28T20:15:40.830Z,15.77
2018-03-28T20:18:08.982Z,15.47
2018-03-28T20:20:37.165Z,14.70
2018-03-28T20:23:05.343Z,16.23
2018-03-28T20:25:33.515Z,14.87
2018-03-28T20:28:01.805Z,15.27
2018-03-28T20:30:30.035Z,14.80
2018-03-28T20:32:58.274Z,14.40
2018-03-28T20:35:27.194Z,13.87
2018-03-28T20:37:55.346Z,13.33
2018-03-28T20:40:23.510Z,13.50
2018-03-28T20:42:52.465Z,13.87
2018-03-28T20:45:20.624Z,13.27
2018-03-28T20:47:48.776Z,13.53
2018-03-28T20:50:16.975Z,12.10
2018-03-28T20:52:45.263Z,11.70
2018-03-28T20:55:13.568Z,11.03
2018-03-28T20:57:48.433Z,10.43
2018-03-28T21:00:16.724Z,9.50
2018-03-28T21:02:44.853Z,9.83
2018-03-28T21:05:13.791Z,9.60
2018-03-28T21:07:43.799Z,10.70
2018-03-28T21:10:12.024Z,10.70
2018-03-28T21:12:40.330Z,10.37
2018-03-28T21:15:08.595Z,10.13
2018-03-28T21:17:36.833Z,10.83
2018-03-28T21:20:06.287Z,10.97
2018-03-28T21:22:34.449Z,10.93
2018-03-28T21:25:03.863Z,12.77
2018-03-28T21:27:32.806Z,12.07
2018-03-28T21:30:00.932Z,13.33
2018-03-28T21:32:29.080Z,14.40
2018-03-28T21:34:58.146Z,15.20
2018-03-28T21:37:26.324Z,17.03
2018-03-28T21:39:54.698Z,16.57
2018-03-28T21:42:22.887Z,17.17
2018-03-28T21:44:51.043Z,17.23
2018-03-28T21:47:19.178Z,21.30
2018-03-28T21:49:47.618Z,17.73
2018-03-28T21:52:15.817Z,17.17
2018-03-28T21:54:44.289Z,19.07
2018-03-28T21:57:12.531Z,17.60
2018-03-28T21:59:40.683Z,19.00
2018-03-28T22:02:08.951Z,19.80
2018-03-28T22:04:37.255Z,21.43
2018-03-28T22:07:05.404Z,20.00
2018-03-28T22:09:35.254Z,17.60
2018-03-28T22:12:03.493Z,17.23
2018-03-28T22:14:32.005Z,20.53
2018-03-28T22:17:01.007Z,19.53
2018-03-28T22:19:29.339Z,19.90
2018-03-28T22:21:57.486Z,19.80
2018-03-28T22:24:25.665Z,19.17
2018-03-28T22:26:54.604Z,18.43
2018-03-28T22:29:22.917Z,20.00
2018-03-28T22:31:51.837Z,21.33
2018-03-28T22:34:20.027Z,19.73
2018-03-28T22:36:48.449Z,20.37
2018-03-28T22:39:16.964Z,20.30
2018-03-28T22:41:45.132Z,18.37
2018-03-28T22:44:13.321Z,19.03
2018-03-28T22:46:41.548Z,16.97
2018-03-28T22:49:09.729Z,17.57
2018-03-28T22:51:38.660Z,16.80
2018-03-28T22:54:07.603Z,17.43
2018-03-28T22:56:36.504Z,16.93
2018-03-28T22:59:05.409Z,17.97
2018-03-28T23:01:33.676Z,16.90
2018-03-28T23:04:02.610Z,15.30
2018-03-28T23:06:30.830Z,16.47
2018-03-28T23:08:58.991Z,16.33
2018-03-28T23:11:27.792Z,16.80
2018-03-28T23:13:55.959Z,15.60
2018-03-28T23:16:24.249Z,16.10
2018-03-28T23:18:52.550Z,15.37
2018-03-28T23:21:20.708Z,15.33
2018-03-28T23:23:49.640Z,14.57
2018-03-28T23:26:17.801Z,15.03
2018-03-28T23:28:46.039Z,15.07
2018-03-28T23:31:14.946Z,13.90
2018-03-28T23:33:43.121Z,13.73
2018-03-28T23:36:11.279Z,16.27
2018-03-28T23:38:39.522Z,14.73
2018-03-28T23:41:07.708Z,14.73
2018-03-28T23:43:35.883Z,14.80
2018-03-28T23:46:04.186Z,14.93
2018-03-28T23:48:33.159Z,14.20
2018-03-28T23:51:01.318Z,15.83
2018-03-28T23:53:29.477Z,14.33
2018-03-28T23:55:57.664Z,16.90
2018-03-28T23:58:31.694Z,14.70
